sensor_id;sensor_type;location;lat;lon;timestamp;temperature;humidity
36352;DHT22;22382;44.768;17.206;2022-12-18T00:01:18;4.70;99.90
36352;DHT22;22382;44.768;17.206;2022-12-18T00:03:47;4.70;99.90
36352;DHT22;22382;44.768;17.206;2022-12-18T00:06:16;4.70;99.90
36352;DHT22;22382;44.768;17.206;2022-12-18T00:08:45;4.70;99.90
36352;DHT22;22382;44.768;17.206;2022-12-18T00:11:15;4.70;99.90
36352;DHT22;22382;44.768;17.206;2022-12-18T00:13:43;4.80;99.90
36352;DHT22;22382;44.768;17.206;2022-12-18T00:16:17;4.70;99.90
36352;DHT22;22382;44.768;17.206;2022-12-18T00:18:48;4.70;99.90
36352;DHT22;22382;44.768;17.206;2022-12-18T00:21:16;4.70;99.90
36352;DHT22;22382;44.768;17.206;2022-12-18T00:23:44;4.60;99.90
36352;DHT22;22382;44.768;17.206;2022-12-18T00:26:17;4.60;99.90
36352;DHT22;22382;44.768;17.206;2022-12-18T00:28:44;4.60;99.90
36352;DHT22;22382;44.768;17.206;2022-12-18T00:31:14;4.70;99.90
36352;DHT22;22382;44.768;17.206;2022-12-18T00:33:41;4.80;99.90
36352;DHT22;22382;44.768;17.206;2022-12-18T00:36:16;4.80;99.90
36352;DHT22;22382;44.768;17.206;2022-12-18T00:38:44;4.70;99.90
36352;DHT22;22382;44.768;17.206;2022-12-18T00:41:13;4.70;99.90
36352;DHT22;22382;44.768;17.206;2022-12-18T00:43:40;4.60;99.90
36352;DHT22;22382;44.768;17.206;2022-12-18T00:46:08;4.60;99.90
36352;DHT22;22382;44.768;17.206;2022-12-18T00:48:35;4.50;99.90
36352;DHT22;22382;44.768;17.206;2022-12-18T00:51:02;4.40;99.90
36352;DHT22;22382;44.768;17.206;2022-12-18T00:53:29;4.30;99.90
36352;DHT22;22382;44.768;17.206;2022-12-18T00:55:56;4.20;99.90
36352;DHT22;22382;44.768;17.206;2022-12-18T00:58:23;4.20;99.90
36352;DHT22;22382;44.768;17.206;2022-12-18T01:00:50;4.30;99.90
36352;DHT22;22382;44.768;17.206;2022-12-18T01:03:17;4.30;99.90
36352;DHT22;22382;44.768;17.206;2022-12-18T01:05:44;4.30;99.90
36352;DHT22;22382;44.768;17.206;2022-12-18T01:08:12;4.10;99.90
36352;DHT22;22382;44.768;17.206;2022-12-18T01:10:41;4.20;99.90
36352;DHT22;22382;44.768;17.206;2022-12-18T01:13:08;4.20;99.90
36352;DHT22;22382;44.768;17.206;2022-12-18T01:15:35;4.20;99.90
36352;DHT22;22382;44.768;17.206;2022-12-18T01:18:02;4.20;99.90
36352;DHT22;22382;44.768;17.206;2022-12-18T01:20:29;4.10;99.90
36352;DHT22;22382;44.768;17.206;2022-12-18T01:22:56;4.10;99.90
36352;DHT22;22382;44.768;17.206;2022-12-18T01:25:23;4.10;99.90
36352;DHT22;22382;44.768;17.206;2022-12-18T01:27:51;4.30;99.90
36352;DHT22;22382;44.768;17.206;2022-12-18T01:30:18;4.40;99.90
36352;DHT22;22382;44.768;17.206;2022-12-18T01:32:45;4.40;99.90
36352;DHT22;22382;44.768;17.206;2022-12-18T01:35:12;4.40;99.90
36352;DHT22;22382;44.768;17.206;2022-12-18T01:37:39;4.50;99.90
36352;DHT22;22382;44.768;17.206;2022-12-18T01:40:07;4.40;99.90
36352;DHT22;22382;44.768;17.206;2022-12-18T01:42:34;4.30;99.90
36352;DHT22;22382;44.768;17.206;2022-12-18T01:50:36;4.10;99.90
36352;DHT22;22382;44.768;17.206;2022-12-18T01:55:40;4.10;99.90
36352;DHT22;22382;44.768;17.206;2022-12-18T01:58:09;4.00;99.90
36352;DHT22;22382;44.768;17.206;2022-12-18T02:00:36;3.80;99.90
36352;DHT22;22382;44.768;17.206;2022-12-18T02:03:03;3.80;99.90
36352;DHT22;22382;44.768;17.206;2022-12-18T02:05:37;3.80;99.90
36352;DHT22;22382;44.768;17.206;2022-12-18T02:11:07;3.90;99.90
36352;DHT22;22382;44.768;17.206;2022-12-18T02:17:18;3.90;99.90
36352;DHT22;22382;44.768;17.206;2022-12-18T02:20:07;3.90;99.90
36352;DHT22;22382;44.768;17.206;2022-12-18T02:28:26;3.90;99.90
36352;DHT22;22382;44.768;17.206;2022-12-18T02:30:56;4.00;99.90
36352;DHT22;22382;44.768;17.206;2022-12-18T02:33:27;3.80;99.90
36352;DHT22;22382;44.768;17.206;2022-12-18T02:35:54;3.90;99.90
36352;DHT22;22382;44.768;17.206;2022-12-18T02:38:23;3.90;99.90
36352;DHT22;22382;44.768;17.206;2022-12-18T02:40:52;3.90;99.90
36352;DHT22;22382;44.768;17.206;2022-12-18T02:43:20;3.80;99.90
36352;DHT22;22382;44.768;17.206;2022-12-18T02:46:29;3.90;99.90
36352;DHT22;22382;44.768;17.206;2022-12-18T02:51:56;3.80;99.90
36352;DHT22;22382;44.768;17.206;2022-12-18T02:57:45;3.60;99.90
36352;DHT22;22382;44.768;17.206;2022-12-18T03:00:18;3.40;99.90
36352;DHT22;22382;44.768;17.206;2022-12-18T03:02:51;3.30;99.90
36352;DHT22;22382;44.768;17.206;2022-12-18T03:05:30;3.10;99.90
36352;DHT22;22382;44.768;17.206;2022-12-18T03:08:18;3.00;99.90
36352;DHT22;22382;44.768;17.206;2022-12-18T03:10:51;2.90;99.90
36352;DHT22;22382;44.768;17.206;2022-12-18T03:13:26;2.90;99.90
36352;DHT22;22382;44.768;17.206;2022-12-18T03:16:14;2.80;99.90
36352;DHT22;22382;44.768;17.206;2022-12-18T03:18:49;2.80;99.90
36352;DHT22;22382;44.768;17.206;2022-12-18T03:21:22;2.70;99.90
36352;DHT22;22382;44.768;17.206;2022-12-18T03:23:53;2.60;99.90
36352;DHT22;22382;44.768;17.206;2022-12-18T03:26:24;2.60;99.90
36352;DHT22;22382;44.768;17.206;2022-12-18T03:29:04;2.60;99.90
36352;DHT22;22382;44.768;17.206;2022-12-18T03:31:37;2.50;99.90
36352;DHT22;22382;44.768;17.206;2022-12-18T03:34:33;2.50;99.90
36352;DHT22;22382;44.768;17.206;2022-12-18T03:36:58;2.50;99.90
36352;DHT22;22382;44.768;17.206;2022-12-18T03:39:25;2.50;99.90
36352;DHT22;22382;44.768;17.206;2022-12-18T03:47:27;2.30;99.90
36352;DHT22;22382;44.768;17.206;2022-12-18T03:50:10;2.30;99.90
36352;DHT22;22382;44.768;17.206;2022-12-18T03:52:47;2.20;99.90
36352;DHT22;22382;44.768;17.206;2022-12-18T03:55:18;2.30;99.90
36352;DHT22;22382;44.768;17.206;2022-12-18T03:57:48;2.20;99.90
36352;DHT22;22382;44.768;17.206;2022-12-18T04:00:17;2.10;99.90
36352;DHT22;22382;44.768;17.206;2022-12-18T04:02:55;2.10;99.90
36352;DHT22;22382;44.768;17.206;2022-12-18T04:05:25;2.00;99.90
36352;DHT22;22382;44.768;17.206;2022-12-18T04:07:53;1.90;99.90
36352;DHT22;22382;44.768;17.206;2022-12-18T04:10:22;2.00;99.90
36352;DHT22;22382;44.768;17.206;2022-12-18T04:12:49;2.00;99.90
36352;DHT22;22382;44.768;17.206;2022-12-18T04:15:16;2.00;99.90
36352;DHT22;22382;44.768;17.206;2022-12-18T04:17:49;1.90;99.90
36352;DHT22;22382;44.768;17.206;2022-12-18T04:20:17;1.90;99.90
36352;DHT22;22382;44.768;17.206;2022-12-18T04:22:44;1.90;99.90
36352;DHT22;22382;44.768;17.206;2022-12-18T04:25:12;1.90;99.90
36352;DHT22;22382;44.768;17.206;2022-12-18T04:27:39;1.80;99.90
36352;DHT22;22382;44.768;17.206;2022-12-18T04:30:06;1.80;99.90
36352;DHT22;22382;44.768;17.206;2022-12-18T04:32:34;1.70;99.90
36352;DHT22;22382;44.768;17.206;2022-12-18T04:35:02;1.70;99.90
36352;DHT22;22382;44.768;17.206;2022-12-18T04:37:31;1.70;99.90
36352;DHT22;22382;44.768;17.206;2022-12-18T04:39:58;1.70;99.90
36352;DHT22;22382;44.768;17.206;2022-12-18T04:42:24;1.70;99.90
36352;DHT22;22382;44.768;17.206;2022-12-18T04:44:51;1.80;99.90
36352;DHT22;22382;44.768;17.206;2022-12-18T04:47:18;1.80;99.90
36352;DHT22;22382;44.768;17.206;2022-12-18T04:49:45;1.80;99.90
36352;DHT22;22382;44.768;17.206;2022-12-18T04:52:12;1.90;99.90
36352;DHT22;22382;44.768;17.206;2022-12-18T04:54:39;1.90;99.90
36352;DHT22;22382;44.768;17.206;2022-12-18T04:57:06;1.90;99.90
36352;DHT22;22382;44.768;17.206;2022-12-18T04:59:33;1.90;99.90
36352;DHT22;22382;44.768;17.206;2022-12-18T05:02:00;1.90;99.90
36352;DHT22;22382;44.768;17.206;2022-12-18T05:04:27;2.00;99.90
36352;DHT22;22382;44.768;17.206;2022-12-18T05:06:54;2.00;99.90
36352;DHT22;22382;44.768;17.206;2022-12-18T05:09:22;2.00;99.90
36352;DHT22;22382;44.768;17.206;2022-12-18T05:11:49;2.10;99.90
36352;DHT22;22382;44.768;17.206;2022-12-18T05:14:16;2.10;99.90
36352;DHT22;22382;44.768;17.206;2022-12-18T05:16:43;2.10;99.90
36352;DHT22;22382;44.768;17.206;2022-12-18T05:19:11;2.10;99.90
36352;DHT22;22382;44.768;17.206;2022-12-18T05:21:38;2.20;99.90
36352;DHT22;22382;44.768;17.206;2022-12-18T05:24:06;2.30;99.90
36352;DHT22;22382;44.768;17.206;2022-12-18T05:26:33;2.30;99.90
36352;DHT22;22382;44.768;17.206;2022-12-18T05:29:00;2.30;99.90
36352;DHT22;22382;44.768;17.206;2022-12-18T05:31:26;2.30;99.90
36352;DHT22;22382;44.768;17.206;2022-12-18T05:33:54;2.40;99.90
36352;DHT22;22382;44.768;17.206;2022-12-18T05:36:21;2.50;99.90
36352;DHT22;22382;44.768;17.206;2022-12-18T05:38:47;2.50;99.90
36352;DHT22;22382;44.768;17.206;2022-12-18T05:41:15;2.50;99.90
36352;DHT22;22382;44.768;17.206;2022-12-18T05:43:42;2.40;99.90
36352;DHT22;22382;44.768;17.206;2022-12-18T05:46:15;2.40;99.90
36352;DHT22;22382;44.768;17.206;2022-12-18T05:48:44;2.30;99.90
36352;DHT22;22382;44.768;17.206;2022-12-18T05:51:13;2.30;99.90
36352;DHT22;22382;44.768;17.206;2022-12-18T05:53:41;2.20;99.90
36352;DHT22;22382;44.768;17.206;2022-12-18T05:56:12;2.10;99.90
36352;DHT22;22382;44.768;17.206;2022-12-18T05:58:39;2.10;99.90
36352;DHT22;22382;44.768;17.206;2022-12-18T06:01:15;2.20;99.90
36352;DHT22;22382;44.768;17.206;2022-12-18T06:03:43;2.00;99.90
36352;DHT22;22382;44.768;17.206;2022-12-18T06:06:19;1.90;99.90
36352;DHT22;22382;44.768;17.206;2022-12-18T06:08:46;1.90;99.90
36352;DHT22;22382;44.768;17.206;2022-12-18T06:11:17;1.90;99.90
36352;DHT22;22382;44.768;17.206;2022-12-18T06:13:45;2.00;99.90
36352;DHT22;22382;44.768;17.206;2022-12-18T06:16:12;2.00;99.90
36352;DHT22;22382;44.768;17.206;2022-12-18T06:18:39;2.10;99.90
36352;DHT22;22382;44.768;17.206;2022-12-18T06:21:06;2.10;99.90
36352;DHT22;22382;44.768;17.206;2022-12-18T06:23:33;2.20;99.90
36352;DHT22;22382;44.768;17.206;2022-12-18T06:26:06;2.20;99.90
36352;DHT22;22382;44.768;17.206;2022-12-18T06:28:33;2.20;99.90
36352;DHT22;22382;44.768;17.206;2022-12-18T06:31:03;2.20;99.90
36352;DHT22;22382;44.768;17.206;2022-12-18T06:33:31;2.10;99.90
36352;DHT22;22382;44.768;17.206;2022-12-18T06:36:09;2.10;99.90
36352;DHT22;22382;44.768;17.206;2022-12-18T06:38:40;2.00;99.90
36352;DHT22;22382;44.768;17.206;2022-12-18T06:41:16;2.00;99.90
36352;DHT22;22382;44.768;17.206;2022-12-18T06:43:43;2.00;99.90
36352;DHT22;22382;44.768;17.206;2022-12-18T06:46:12;2.10;99.90
36352;DHT22;22382;44.768;17.206;2022-12-18T06:48:39;2.10;99.90
36352;DHT22;22382;44.768;17.206;2022-12-18T06:51:06;2.20;99.90
36352;DHT22;22382;44.768;17.206;2022-12-18T06:53:34;2.20;99.90
36352;DHT22;22382;44.768;17.206;2022-12-18T06:56:06;2.30;99.90
36352;DHT22;22382;44.768;17.206;2022-12-18T06:58:37;2.20;99.90
36352;DHT22;22382;44.768;17.206;2022-12-18T07:01:07;2.30;99.90
36352;DHT22;22382;44.768;17.206;2022-12-18T07:03:35;2.30;99.90
36352;DHT22;22382;44.768;17.206;2022-12-18T07:06:03;2.40;99.90
36352;DHT22;22382;44.768;17.206;2022-12-18T07:08:31;2.50;99.90
36352;DHT22;22382;44.768;17.206;2022-12-18T07:10:58;2.60;99.90
36352;DHT22;22382;44.768;17.206;2022-12-18T07:13:25;2.60;99.90
36352;DHT22;22382;44.768;17.206;2022-12-18T07:15:53;2.70;99.90
36352;DHT22;22382;44.768;17.206;2022-12-18T07:18:20;2.80;99.90
36352;DHT22;22382;44.768;17.206;2022-12-18T07:20:47;2.90;99.90
36352;DHT22;22382;44.768;17.206;2022-12-18T07:23:14;3.00;99.90
36352;DHT22;22382;44.768;17.206;2022-12-18T07:25:41;3.10;99.90
36352;DHT22;22382;44.768;17.206;2022-12-18T07:28:08;3.20;99.90
36352;DHT22;22382;44.768;17.206;2022-12-18T07:30:42;3.30;99.90
36352;DHT22;22382;44.768;17.206;2022-12-18T07:33:09;3.30;99.90
36352;DHT22;22382;44.768;17.206;2022-12-18T07:35:37;3.40;99.90
36352;DHT22;22382;44.768;17.206;2022-12-18T07:38:04;3.40;99.90
36352;DHT22;22382;44.768;17.206;2022-12-18T07:40:31;3.30;99.90
36352;DHT22;22382;44.768;17.206;2022-12-18T07:42:58;3.30;99.90
36352;DHT22;22382;44.768;17.206;2022-12-18T07:45:25;3.20;99.90
36352;DHT22;22382;44.768;17.206;2022-12-18T07:47:52;3.10;99.90
36352;DHT22;22382;44.768;17.206;2022-12-18T07:50:19;3.20;99.90
36352;DHT22;22382;44.768;17.206;2022-12-18T07:52:46;3.30;99.90
36352;DHT22;22382;44.768;17.206;2022-12-18T07:55:13;3.40;99.90
36352;DHT22;22382;44.768;17.206;2022-12-18T07:57:40;3.30;99.90
36352;DHT22;22382;44.768;17.206;2022-12-18T08:00:17;3.40;99.90
36352;DHT22;22382;44.768;17.206;2022-12-18T08:02:44;3.30;99.90
36352;DHT22;22382;44.768;17.206;2022-12-18T08:05:11;3.50;99.90
36352;DHT22;22382;44.768;17.206;2022-12-18T08:07:40;3.50;99.90
36352;DHT22;22382;44.768;17.206;2022-12-18T08:10:07;3.60;99.90
36352;DHT22;22382;44.768;17.206;2022-12-18T08:12:34;3.70;99.90
36352;DHT22;22382;44.768;17.206;2022-12-18T08:15:01;3.80;99.90
36352;DHT22;22382;44.768;17.206;2022-12-18T08:17:29;3.70;99.90
36352;DHT22;22382;44.768;17.206;2022-12-18T08:19:56;3.70;99.90
36352;DHT22;22382;44.768;17.206;2022-12-18T08:22:23;3.80;99.90
36352;DHT22;22382;44.768;17.206;2022-12-18T08:24:50;4.00;99.90
36352;DHT22;22382;44.768;17.206;2022-12-18T08:27:17;4.00;99.90
36352;DHT22;22382;44.768;17.206;2022-12-18T08:30:00;3.90;99.90
36352;DHT22;22382;44.768;17.206;2022-12-18T08:32:28;3.90;99.90
36352;DHT22;22382;44.768;17.206;2022-12-18T08:34:55;3.90;99.90
36352;DHT22;22382;44.768;17.206;2022-12-18T08:37:22;3.90;99.90
36352;DHT22;22382;44.768;17.206;2022-12-18T08:39:49;3.60;99.90
36352;DHT22;22382;44.768;17.206;2022-12-18T08:42:16;3.60;99.90
36352;DHT22;22382;44.768;17.206;2022-12-18T08:45:02;3.80;99.90
36352;DHT22;22382;44.768;17.206;2022-12-18T08:47:29;3.90;99.90
36352;DHT22;22382;44.768;17.206;2022-12-18T08:49:56;3.90;99.90
36352;DHT22;22382;44.768;17.206;2022-12-18T08:52:23;4.00;99.90
36352;DHT22;22382;44.768;17.206;2022-12-18T08:54:50;4.20;99.90
36352;DHT22;22382;44.768;17.206;2022-12-18T08:57:17;4.40;99.90
36352;DHT22;22382;44.768;17.206;2022-12-18T08:59:44;4.50;99.90
36352;DHT22;22382;44.768;17.206;2022-12-18T09:02:11;4.50;99.90
36352;DHT22;22382;44.768;17.206;2022-12-18T09:04:39;4.40;99.90
36352;DHT22;22382;44.768;17.206;2022-12-18T09:07:06;4.30;99.90
36352;DHT22;22382;44.768;17.206;2022-12-18T09:09:33;3.90;99.90
36352;DHT22;22382;44.768;17.206;2022-12-18T09:12:00;3.50;99.90
36352;DHT22;22382;44.768;17.206;2022-12-18T09:14:27;3.30;99.90
36352;DHT22;22382;44.768;17.206;2022-12-18T09:16:54;3.20;99.90
36352;DHT22;22382;44.768;17.206;2022-12-18T09:19:21;3.20;99.90
36352;DHT22;22382;44.768;17.206;2022-12-18T09:21:49;3.20;99.90
36352;DHT22;22382;44.768;17.206;2022-12-18T09:24:17;3.10;99.90
36352;DHT22;22382;44.768;17.206;2022-12-18T09:26:44;3.30;99.90
36352;DHT22;22382;44.768;17.206;2022-12-18T09:29:14;3.50;99.90
36352;DHT22;22382;44.768;17.206;2022-12-18T09:31:43;3.60;99.90
36352;DHT22;22382;44.768;17.206;2022-12-18T09:34:10;3.90;99.90
36352;DHT22;22382;44.768;17.206;2022-12-18T09:36:37;4.10;99.90
36352;DHT22;22382;44.768;17.206;2022-12-18T09:39:05;4.30;99.90
36352;DHT22;22382;44.768;17.206;2022-12-18T09:41:56;4.40;99.90
36352;DHT22;22382;44.768;17.206;2022-12-18T09:44:32;4.60;99.90
36352;DHT22;22382;44.768;17.206;2022-12-18T09:49:45;5.00;99.90
36352;DHT22;22382;44.768;17.206;2022-12-18T09:54:48;5.10;99.90
36352;DHT22;22382;44.768;17.206;2022-12-18T09:57:19;5.20;99.90
36352;DHT22;22382;44.768;17.206;2022-12-18T09:59:55;5.20;99.90
36352;DHT22;22382;44.768;17.206;2022-12-18T10:02:25;5.10;99.90
36352;DHT22;22382;44.768;17.206;2022-12-18T10:05:06;5.00;99.90
36352;DHT22;22382;44.768;17.206;2022-12-18T10:07:45;4.90;99.90
36352;DHT22;22382;44.768;17.206;2022-12-18T10:10:32;5.00;99.90
36352;DHT22;22382;44.768;17.206;2022-12-18T10:13:23;5.00;99.90
36352;DHT22;22382;44.768;17.206;2022-12-18T10:16:19;5.00;99.90
36352;DHT22;22382;44.768;17.206;2022-12-18T10:19:09;5.00;99.90
36352;DHT22;22382;44.768;17.206;2022-12-18T10:26:58;5.10;99.90
36352;DHT22;22382;44.768;17.206;2022-12-18T10:29:27;5.20;99.90
36352;DHT22;22382;44.768;17.206;2022-12-18T10:31:54;5.40;99.90
36352;DHT22;22382;44.768;17.206;2022-12-18T10:34:21;5.50;99.90
36352;DHT22;22382;44.768;17.206;2022-12-18T10:36:48;5.40;99.90
36352;DHT22;22382;44.768;17.206;2022-12-18T10:39:21;5.10;99.90
36352;DHT22;22382;44.768;17.206;2022-12-18T10:42:10;5.10;99.90
36352;DHT22;22382;44.768;17.206;2022-12-18T10:44:38;4.80;99.90
36352;DHT22;22382;44.768;17.206;2022-12-18T10:47:12;4.70;99.90
36352;DHT22;22382;44.768;17.206;2022-12-18T10:49:52;4.80;99.90
36352;DHT22;22382;44.768;17.206;2022-12-18T10:52:25;4.90;99.90
36352;DHT22;22382;44.768;17.206;2022-12-18T10:54:55;5.10;99.90
36352;DHT22;22382;44.768;17.206;2022-12-18T10:57:35;5.10;99.90
36352;DHT22;22382;44.768;17.206;2022-12-18T11:00:22;5.10;99.90
36352;DHT22;22382;44.768;17.206;2022-12-18T11:02:50;5.00;99.90
36352;DHT22;22382;44.768;17.206;2022-12-18T11:05:32;5.00;99.90
36352;DHT22;22382;44.768;17.206;2022-12-18T11:08:01;4.90;99.90
36352;DHT22;22382;44.768;17.206;2022-12-18T11:12:57;5.10;99.90
36352;DHT22;22382;44.768;17.206;2022-12-18T11:15:35;5.30;99.90
36352;DHT22;22382;44.768;17.206;2022-12-18T11:18:02;5.30;99.90
36352;DHT22;22382;44.768;17.206;2022-12-18T11:20:34;5.30;99.90
36352;DHT22;22382;44.768;17.206;2022-12-18T11:23:05;5.50;99.90
36352;DHT22;22382;44.768;17.206;2022-12-18T11:25:33;5.50;99.90
36352;DHT22;22382;44.768;17.206;2022-12-18T11:28:04;5.60;99.90
36352;DHT22;22382;44.768;17.206;2022-12-18T11:30:36;5.40;99.90
36352;DHT22;22382;44.768;17.206;2022-12-18T11:33:30;5.40;99.90
36352;DHT22;22382;44.768;17.206;2022-12-18T11:36:00;5.70;99.90
36352;DHT22;22382;44.768;17.206;2022-12-18T11:38:44;5.80;99.90
36352;DHT22;22382;44.768;17.206;2022-12-18T11:41:33;5.80;99.90
36352;DHT22;22382;44.768;17.206;2022-12-18T11:44:32;5.80;99.90
36352;DHT22;22382;44.768;17.206;2022-12-18T11:49:56;5.90;99.90
36352;DHT22;22382;44.768;17.206;2022-12-18T11:52:37;5.90;99.90
36352;DHT22;22382;44.768;17.206;2022-12-18T11:55:12;5.80;99.90
36352;DHT22;22382;44.768;17.206;2022-12-18T12:00:16;5.70;99.90
36352;DHT22;22382;44.768;17.206;2022-12-18T12:08:18;6.00;99.90
36352;DHT22;22382;44.768;17.206;2022-12-18T12:19:06;5.90;99.90
36352;DHT22;22382;44.768;17.206;2022-12-18T12:21:40;5.80;99.90
36352;DHT22;22382;44.768;17.206;2022-12-18T12:27:12;5.80;99.90
36352;DHT22;22382;44.768;17.206;2022-12-18T12:29:54;5.70;99.90
36352;DHT22;22382;44.768;17.206;2022-12-18T12:38:00;5.70;99.90
36352;DHT22;22382;44.768;17.206;2022-12-18T12:40:33;5.70;99.90
36352;DHT22;22382;44.768;17.206;2022-12-18T12:43:43;5.80;99.90
36352;DHT22;22382;44.768;17.206;2022-12-18T12:46:19;5.60;99.90
36352;DHT22;22382;44.768;17.206;2022-12-18T12:48:51;5.50;99.90
36352;DHT22;22382;44.768;17.206;2022-12-18T12:53:56;5.70;99.90
36352;DHT22;22382;44.768;17.206;2022-12-18T12:57:11;5.60;99.90
36352;DHT22;22382;44.768;17.206;2022-12-18T13:05:05;5.60;99.90
36352;DHT22;22382;44.768;17.206;2022-12-18T13:08:02;5.50;99.90
36352;DHT22;22382;44.768;17.206;2022-12-18T13:10:37;5.40;99.90
36352;DHT22;22382;44.768;17.206;2022-12-18T13:23:35;5.70;99.90
36352;DHT22;22382;44.768;17.206;2022-12-18T13:31:01;5.50;99.90
36352;DHT22;22382;44.768;17.206;2022-12-18T13:38:47;5.40;99.90
36352;DHT22;22382;44.768;17.206;2022-12-18T13:43:48;5.50;99.90
36352;DHT22;22382;44.768;17.206;2022-12-18T13:49:00;5.40;99.90
36352;DHT22;22382;44.768;17.206;2022-12-18T13:51:31;5.40;99.90
36352;DHT22;22382;44.768;17.206;2022-12-18T13:54:06;5.60;99.90
36352;DHT22;22382;44.768;17.206;2022-12-18T13:56:44;5.40;99.90
36352;DHT22;22382;44.768;17.206;2022-12-18T13:59:19;5.40;99.90
36352;DHT22;22382;44.768;17.206;2022-12-18T14:01:57;5.30;99.90
36352;DHT22;22382;44.768;17.206;2022-12-18T14:07:10;5.30;99.90
36352;DHT22;22382;44.768;17.206;2022-12-18T14:09:49;5.30;99.90
36352;DHT22;22382;44.768;17.206;2022-12-18T14:12:26;5.20;99.90
36352;DHT22;22382;44.768;17.206;2022-12-18T14:20:43;5.00;99.90
36352;DHT22;22382;44.768;17.206;2022-12-18T14:23:36;5.00;99.90
36352;DHT22;22382;44.768;17.206;2022-12-18T14:26:21;5.10;99.90
36352;DHT22;22382;44.768;17.206;2022-12-18T14:28:49;5.10;99.90
36352;DHT22;22382;44.768;17.206;2022-12-18T14:31:24;5.20;99.90
36352;DHT22;22382;44.768;17.206;2022-12-18T14:33:52;5.10;99.90
36352;DHT22;22382;44.768;17.206;2022-12-18T14:36:25;5.10;99.90
36352;DHT22;22382;44.768;17.206;2022-12-18T14:38:57;5.00;99.90
36352;DHT22;22382;44.768;17.206;2022-12-18T14:41:25;5.00;99.90
36352;DHT22;22382;44.768;17.206;2022-12-18T14:43:54;5.00;99.90
36352;DHT22;22382;44.768;17.206;2022-12-18T14:49:22;5.00;99.90
36352;DHT22;22382;44.768;17.206;2022-12-18T14:51:53;4.80;99.90
36352;DHT22;22382;44.768;17.206;2022-12-18T14:54:22;4.80;99.90
36352;DHT22;22382;44.768;17.206;2022-12-18T14:59:40;4.50;99.90
36352;DHT22;22382;44.768;17.206;2022-12-18T15:02:25;4.30;99.90
36352;DHT22;22382;44.768;17.206;2022-12-18T15:07:55;4.10;99.90
36352;DHT22;22382;44.768;17.206;2022-12-18T15:10:27;4.00;99.90
36352;DHT22;22382;44.768;17.206;2022-12-18T15:18:16;3.90;99.90
36352;DHT22;22382;44.768;17.206;2022-12-18T15:23:28;4.00;99.90
36352;DHT22;22382;44.768;17.206;2022-12-18T15:26:03;4.00;99.90
36352;DHT22;22382;44.768;17.206;2022-12-18T15:33:43;3.40;99.90
36352;DHT22;22382;44.768;17.206;2022-12-18T15:36:14;3.20;99.90
36352;DHT22;22382;44.768;17.206;2022-12-18T15:38:53;3.10;99.90
36352;DHT22;22382;44.768;17.206;2022-12-18T15:41:32;3.00;99.90
36352;DHT22;22382;44.768;17.206;2022-12-18T15:44:02;2.90;99.90
36352;DHT22;22382;44.768;17.206;2022-12-18T15:46:29;2.80;99.90
36352;DHT22;22382;44.768;17.206;2022-12-18T15:48:58;2.90;99.90
36352;DHT22;22382;44.768;17.206;2022-12-18T15:51:29;2.80;99.90
36352;DHT22;22382;44.768;17.206;2022-12-18T15:54:00;2.70;99.90
36352;DHT22;22382;44.768;17.206;2022-12-18T15:56:27;2.70;99.90
36352;DHT22;22382;44.768;17.206;2022-12-18T15:59:15;2.80;99.90
36352;DHT22;22382;44.768;17.206;2022-12-18T16:01:45;2.70;99.90
36352;DHT22;22382;44.768;17.206;2022-12-18T16:04:15;2.60;99.90
36352;DHT22;22382;44.768;17.206;2022-12-18T16:06:43;2.50;99.90
36352;DHT22;22382;44.768;17.206;2022-12-18T16:09:29;2.40;99.90
36352;DHT22;22382;44.768;17.206;2022-12-18T16:11:56;2.40;99.90
36352;DHT22;22382;44.768;17.206;2022-12-18T16:14:26;2.50;99.90
36352;DHT22;22382;44.768;17.206;2022-12-18T16:17:00;2.40;99.90
36352;DHT22;22382;44.768;17.206;2022-12-18T16:19:28;2.30;99.90
36352;DHT22;22382;44.768;17.206;2022-12-18T16:21:57;2.30;99.90
36352;DHT22;22382;44.768;17.206;2022-12-18T16:24:27;2.20;99.90
36352;DHT22;22382;44.768;17.206;2022-12-18T16:26:56;2.10;99.90
36352;DHT22;22382;44.768;17.206;2022-12-18T16:29:26;2.10;99.90
36352;DHT22;22382;44.768;17.206;2022-12-18T16:31:55;2.00;99.90
36352;DHT22;22382;44.768;17.206;2022-12-18T16:34:24;2.00;99.90
36352;DHT22;22382;44.768;17.206;2022-12-18T16:36:57;2.00;99.90
36352;DHT22;22382;44.768;17.206;2022-12-18T16:39:34;1.90;99.90
36352;DHT22;22382;44.768;17.206;2022-12-18T16:42:08;1.80;99.90
36352;DHT22;22382;44.768;17.206;2022-12-18T16:44:36;1.70;99.90
36352;DHT22;22382;44.768;17.206;2022-12-18T16:47:03;1.70;99.90
36352;DHT22;22382;44.768;17.206;2022-12-18T16:49:32;1.60;99.90
36352;DHT22;22382;44.768;17.206;2022-12-18T16:51:59;1.50;99.90
36352;DHT22;22382;44.768;17.206;2022-12-18T16:54:26;1.40;99.90
36352;DHT22;22382;44.768;17.206;2022-12-18T16:56:56;1.40;99.90
36352;DHT22;22382;44.768;17.206;2022-12-18T16:59:23;1.30;99.90
36352;DHT22;22382;44.768;17.206;2022-12-18T17:01:52;1.30;99.90
36352;DHT22;22382;44.768;17.206;2022-12-18T17:04:21;1.20;99.90
36352;DHT22;22382;44.768;17.206;2022-12-18T17:06:48;1.30;99.90
36352;DHT22;22382;44.768;17.206;2022-12-18T17:09:18;1.30;99.90
36352;DHT22;22382;44.768;17.206;2022-12-18T17:11:55;1.40;99.90
36352;DHT22;22382;44.768;17.206;2022-12-18T17:14:23;1.30;99.90
36352;DHT22;22382;44.768;17.206;2022-12-18T17:16:54;1.30;99.90
36352;DHT22;22382;44.768;17.206;2022-12-18T17:19:42;1.20;99.90
36352;DHT22;22382;44.768;17.206;2022-12-18T17:22:09;1.20;99.90
36352;DHT22;22382;44.768;17.206;2022-12-18T17:24:36;1.20;99.90
36352;DHT22;22382;44.768;17.206;2022-12-18T17:27:03;1.10;99.90
36352;DHT22;22382;44.768;17.206;2022-12-18T17:29:30;1.10;99.90
36352;DHT22;22382;44.768;17.206;2022-12-18T17:31:57;1.10;99.90
36352;DHT22;22382;44.768;17.206;2022-12-18T17:34:26;1.10;99.90
36352;DHT22;22382;44.768;17.206;2022-12-18T17:36:53;1.10;99.90
36352;DHT22;22382;44.768;17.206;2022-12-18T17:39:21;1.00;99.90
36352;DHT22;22382;44.768;17.206;2022-12-18T17:41:48;1.00;99.90
36352;DHT22;22382;44.768;17.206;2022-12-18T17:44:15;1.00;99.90
36352;DHT22;22382;44.768;17.206;2022-12-18T17:46:44;0.90;99.90
36352;DHT22;22382;44.768;17.206;2022-12-18T17:49:12;0.90;99.90
36352;DHT22;22382;44.768;17.206;2022-12-18T17:51:40;1.00;99.90
36352;DHT22;22382;44.768;17.206;2022-12-18T17:54:09;1.20;99.90
36352;DHT22;22382;44.768;17.206;2022-12-18T17:56:37;1.20;99.90
36352;DHT22;22382;44.768;17.206;2022-12-18T17:59:05;1.30;99.90
36352;DHT22;22382;44.768;17.206;2022-12-18T18:01:33;1.30;99.90
36352;DHT22;22382;44.768;17.206;2022-12-18T18:04:06;1.30;99.90
36352;DHT22;22382;44.768;17.206;2022-12-18T18:06:34;1.30;99.90
36352;DHT22;22382;44.768;17.206;2022-12-18T18:09:06;1.30;99.90
36352;DHT22;22382;44.768;17.206;2022-12-18T18:11:43;1.30;99.90